createdAt,value
2022-08-08T00:00:00.000Z,7.22
2022-08-08T00:15:00.000Z,7.35
2022-08-08T00:30:00.000Z,7.33
2022-08-08T00:45:00.000Z,7.33
2022-08-08T01:00:00.000Z,7.59
2022-08-08T01:15:00.000Z,8.42
2022-08-08T01:30:00.000Z,9.39
2022-08-08T01:45:00.000Z,10.16
2022-08-08T02:00:00.000Z,10.64
2022-08-08T02:15:00.000Z,11.17
2022-08-08T02:30:00.000Z,10.85
2022-08-08T02:45:00.000Z,10.46
2022-08-08T03:00:00.000Z,11.7
2022-08-08T03:15:00.000Z,10.38
2022-08-08T03:30:00.000Z,10.81
2022-08-08T03:45:00.000Z,10.76
2022-08-08T04:00:00.000Z,12.58
2022-08-08T04:15:00.000Z,14.2
2022-08-08T04:30:00.000Z,14.6
2022-08-08T04:45:00.000Z,14.85
2022-08-08T05:00:00.000Z,15.69
2022-08-08T05:15:00.000Z,17.29
2022-08-08T05:30:00.000Z,17.44
2022-08-08T05:45:00.000Z,16.76
2022-08-08T06:00:00.000Z,17.21
2022-08-08T06:15:00.000Z,19.91
2022-08-08T06:30:00.000Z,23.14
2022-08-08T06:45:00.000Z,24.87
2022-08-08T07:00:00.000Z,24.61
2022-08-08T07:15:00.000Z,24.96
2022-08-08T07:30:00.000Z,21.76
2022-08-08T07:45:00.000Z,20.8
2022-08-08T08:00:00.000Z,20.08
2022-08-08T08:15:00.000Z,20.64
2022-08-08T08:30:00.000Z,19.95
2022-08-08T08:45:00.000Z,17.06
2022-08-08T09:00:00.000Z,14.87
2022-08-08T09:15:00.000Z,12.75
2022-08-08T09:30:00.000Z,7.8
2022-08-08T09:45:00.000Z,6.53
2022-08-08T10:00:00.000Z,5.69
2022-08-08T10:15:00.000Z,5.99
2022-08-08T10:30:00.000Z,5.84
2022-08-08T10:45:00.000Z,5.29
2022-08-08T11:00:00.000Z,5.65
2022-08-08T11:15:00.000Z,6.22
2022-08-08T11:30:00.000Z,6.78
2022-08-08T11:45:00.000Z,7.08
2022-08-08T12:00:00.000Z,6.86
2022-08-08T12:15:00.000Z,6.87
2022-08-08T12:30:00.000Z,7.05
2022-08-08T12:45:00.000Z,6.99
2022-08-08T13:00:00.000Z,6.76
2022-08-08T13:15:00.000Z,7.39
2022-08-08T13:30:00.000Z,7.12
2022-08-08T13:45:00.000Z,7.46
2022-08-08T14:00:00.000Z,7.12
2022-08-08T14:15:00.000Z,7.07
2022-08-08T14:30:00.000Z,7.05
2022-08-08T14:45:00.000Z,7.15
2022-08-08T15:00:00.000Z,7.05
2022-08-08T15:15:00.000Z,7.13
2022-08-08T15:30:00.000Z,6.98
2022-08-08T15:45:00.000Z,6.22
2022-08-08T16:00:00.000Z,6.86
2022-08-08T16:15:00.000Z,6.48
2022-08-08T16:30:00.000Z,6.48
2022-08-08T16:45:00.000Z,5.61
2022-08-08T17:00:00.000Z,6.01
2022-08-08T17:15:00.000Z,5.54
2022-08-08T17:30:00.000Z,6.31
2022-08-08T17:45:00.000Z,6.39
2022-08-08T18:00:00.000Z,6.67
2022-08-08T18:15:00.000Z,6.49
2022-08-08T18:30:00.000Z,6.8
2022-08-08T18:45:00.000Z,7.32
2022-08-08T19:00:00.000Z,6.96
2022-08-08T19:15:00.000Z,7.18
2022-08-08T19:30:00.000Z,7.33
2022-08-08T19:45:00.000Z,7.19
2022-08-08T20:00:00.000Z,7.46
2022-08-08T20:15:00.000Z,7.69
2022-08-08T20:30:00.000Z,7.71
2022-08-08T20:45:00.000Z,8.69
2022-08-08T21:00:00.000Z,8.45
2022-08-08T21:15:00.000Z,8.58
2022-08-08T21:30:00.000Z,10.04
2022-08-08T21:45:00.000Z,8.32
2022-08-08T22:00:00.000Z,9.27
2022-08-08T22:15:00.000Z,9.81
2022-08-08T22:30:00.000Z,9.25
2022-08-08T22:45:00.000Z,9.72
2022-08-08T23:15:00.000Z,9
2022-08-08T23:15:00.000Z,9.27
2022-08-08T23:30:00.000Z,10.13
2022-08-08T23:45:00.000Z,9.62
